Time;durP1;ratioP1;P1;durP2;ratioP2;P2;SDS_P1;SDS_P2;PMS_P1;PMS_P2;Temp;Humidity;BMP_temperature;BMP_pressure;BME280_temperature;BME280_humidity;BME280_pressure;Samples;Min_cycle;Max_cycle;Signal;HPM_P1;HPM_P2
2022/03/31 00:00:56;;;;;;;;;54.75;40.00;;;;;10.83;60.40;99303.25;4769593;29;45408;-81
2022/03/31 00:03:21;;;;;;;;;53.00;40.00;;;;;10.81;60.45;99314.84;4769573;29;45746;-82
2022/03/31 00:05:48;;;;;;;;;46.00;36.75;;;;;10.82;60.24;99312.09;4769198;29;45649;-82
2022/03/31 00:08:17;;;;;;;;;46.75;38.75;;;;;10.82;60.15;99304.22;4753025;29;46270;-82
2022/03/31 00:10:54;;;;;;;;;42.75;36.75;;;;;10.81;60.08;99305.19;4768195;29;45982;-83
2022/03/31 00:13:24;;;;;;;;;39.75;35.25;;;;;10.80;59.80;99300.91;4768213;29;45543;-82
2022/03/31 00:15:52;;;;;;;;;38.50;34.25;;;;;10.82;59.79;99306.00;4751900;29;48013;-82
2022/03/31 00:18:18;;;;;;;;;40.50;34.25;;;;;10.82;59.61;99308.63;4751449;29;47011;-82
2022/03/31 00:20:43;;;;;;;;;46.75;35.75;;;;;10.81;59.59;99297.31;4767943;29;45616;-82
2022/03/31 00:23:08;;;;;;;;;39.25;34.25;;;;;10.80;58.87;99295.66;4751590;29;45466;-82
2022/03/31 00:25:34;;;;;;;;;31.50;28.00;;;;;10.78;58.86;99295.00;4767903;29;46233;-81
2022/03/31 00:28:03;;;;;;;;;35.00;31.50;;;;;10.81;58.56;99297.31;4767974;29;46722;-82
2022/03/31 00:30:29;;;;;;;;;33.50;29.25;;;;;10.82;58.80;99295.53;4768231;29;45530;-82
2022/03/31 00:32:54;;;;;;;;;39.75;31.75;;;;;10.81;58.58;99296.50;4767930;29;45619;-83
2022/03/31 00:35:19;;;;;;;;;39.75;33.75;;;;;10.78;58.53;99284.53;4751584;29;47599;-82
2022/03/31 00:41:06;;;;;;;;;38.00;30.50;;;;;10.82;58.07;99282.44;4767601;29;45767;-83
2022/03/31 00:43:32;;;;;;;;;35.50;29.75;;;;;10.77;58.21;99280.25;4751623;29;45684;-82
2022/03/31 00:45:58;;;;;;;;;33.50;25.75;;;;;10.76;58.03;99281.22;4767882;29;46363;-82
2022/03/31 00:48:24;;;;;;;;;30.75;23.75;;;;;10.79;58.13;99280.94;4767980;29;46115;-82
2022/03/31 00:50:50;;;;;;;;;31.50;27.25;;;;;10.71;58.08;99266.88;4767760;29;45664;-82
2022/03/31 00:56:37;;;;;;;;;39.00;28.25;;;;;10.73;57.87;99273.66;4767900;29;45656;-83
2022/03/31 00:59:06;;;;;;;;;35.00;32.75;;;;;10.72;57.99;99272.00;4767625;29;46186;-82
2022/03/31 01:01:32;;;;;;;;;41.00;33.25;;;;;10.71;58.26;99262.47;4767891;29;45914;-82
2022/03/31 01:04:00;;;;;;;;;34.50;30.00;;;;;10.72;58.11;99265.94;4751668;29;45494;-82
2022/03/31 01:06:26;;;;;;;;;32.75;29.00;;;;;10.74;58.23;99269.25;4768197;29;45694;-82
2022/03/31 01:08:51;;;;;;;;;30.25;25.25;;;;;10.71;58.20;99259.03;4768016;29;46133;-82
2022/03/31 01:11:17;;;;;;;;;34.00;29.25;;;;;10.72;58.19;99252.84;4727624;29;1244944;-82
2022/03/31 01:13:43;;;;;;;;;34.75;27.75;;;;;10.71;58.17;99257.25;4769586;29;45824;-83
2022/03/31 01:16:08;;;;;;;;;38.25;27.00;;;;;10.72;58.20;99260.69;4769324;29;46260;-82
2022/03/31 01:18:34;;;;;;;;;30.75;28.25;;;;;10.70;58.30;99266.06;4769456;29;45629;-82
2022/03/31 01:21:01;;;;;;;;;39.50;29.25;;;;;10.67;58.18;99263.75;4768468;29;45613;-83
2022/03/31 01:26:48;;;;;;;;;38.00;30.75;;;;;10.61;58.57;99258.25;4769137;29;46080;-82
2022/03/31 01:29:13;;;;;;;;;32.25;28.50;;;;;10.59;58.36;99252.31;4768801;29;45669;-82
2022/03/31 01:31:39;;;;;;;;;42.75;30.25;;;;;10.53;58.55;99248.47;4768615;29;45702;-82
2022/03/31 01:34:07;;;;;;;;;39.75;34.25;;;;;10.51;58.68;99250.41;4768544;29;45757;-81
2022/03/31 01:36:33;;;;;;;;;37.75;28.75;;;;;10.46;58.65;99232.53;4768526;29;45784;-81
2022/03/31 01:42:22;;;;;;;;;41.75;30.25;;;;;10.38;59.00;99237.63;4768087;29;45738;-81
2022/03/31 01:44:48;;;;;;;;;35.75;33.50;;;;;10.34;59.14;99233.66;4751628;29;45555;-81
2022/03/31 01:47:13;;;;;;;;;22.50;20.75;;;;;10.32;59.20;99234.75;4768195;29;46361;-81
2022/03/31 01:49:39;;;;;;;;;40.25;32.00;;;;;10.34;59.21;99224.97;4767801;29;46171;-82
2022/03/31 01:52:06;;;;;;;;;34.50;29.25;;;;;10.31;59.14;99228.69;4767903;29;45542;-82
2022/03/31 01:54:32;;;;;;;;;35.00;31.50;;;;;10.27;59.59;99221.25;4768193;29;45604;-83
2022/03/31 01:56:57;;;;;;;;;44.50;35.00;;;;;10.29;59.24;99222.78;4768091;29;45686;-80
2022/03/31 01:59:23;;;;;;;;;39.00;36.00;;;;;10.27;59.68;99218.63;4767881;29;45685;-80
2022/03/31 02:01:48;;;;;;;;;39.00;33.75;;;;;10.20;59.75;99207.94;4768176;29;45643;-81
2022/03/31 02:04:15;;;;;;;;;34.50;32.75;;;;;10.20;59.85;99212.34;4771077;29;45581;-82
2022/03/31 02:06:41;;;;;;;;;44.00;37.00;;;;;10.15;59.97;99212.69;4770965;29;45610;-80
2022/03/31 02:12:42;;;;;;;;;43.25;36.75;;;;;10.09;60.60;99211.47;4769304;29;45713;-81
2022/03/31 02:15:10;;;;;;;;;46.50;38.50;;;;;10.07;60.30;99216.03;4771348;29;45598;-81
2022/03/31 02:17:35;;;;;;;;;45.75;38.75;;;;;10.04;60.75;99207.66;4771563;29;45859;-82
2022/03/31 02:20:01;;;;;;;;;48.75;36.50;;;;;10.01;60.56;99205.28;4770874;29;45938;-81
2022/03/31 02:22:26;;;;;;;;;47.25;37.75;;;;;10.03;61.08;99209.44;4770909;29;45605;-82
2022/03/31 02:24:52;;;;;;;;;40.75;35.00;;;;;10.03;61.33;99219.91;4770937;29;45773;-82
2022/03/31 02:27:17;;;;;;;;;49.75;40.75;;;;;9.97;61.08;99206.53;4770652;29;46402;-82
2022/03/31 02:29:43;;;;;;;;;43.25;35.25;;;;;9.99;60.94;99220.28;4770572;29;46030;-82
2022/03/31 02:32:08;;;;;;;;;47.50;38.25;;;;;9.91;61.43;99202.69;4770689;29;45511;-82
2022/03/31 02:34:34;;;;;;;;;42.75;35.75;;;;;9.88;61.34;99208.19;4770618;29;45798;-83
2022/03/31 02:37:00;;;;;;;;;52.75;36.50;;;;;9.87;61.55;99201.34;4770460;29;45668;-82
2022/03/31 02:42:47;;;;;;;;;44.75;38.00;;;;;9.77;61.98;99208.34;4770213;29;45680;-82
2022/03/31 02:45:14;;;;;;;;;52.25;40.25;;;;;9.74;62.44;99226.09;4753942;29;45849;-82
2022/03/31 02:47:40;;;;;;;;;42.50;37.50;;;;;9.68;61.74;99211.78;4770205;29;46346;-82
2022/03/31 02:50:07;;;;;;;;;59.00;41.50;;;;;9.62;62.58;99201.88;4770125;29;45614;-81
2022/03/31 02:58:39;;;;;;;;;55.00;43.00;;;;;9.53;62.57;99208.75;4769757;29;45953;-82
2022/03/31 03:01:04;;;;;;;;;57.00;43.25;;;;;9.50;62.76;99213.44;4770160;29;45533;-82
2022/03/31 03:03:32;;;;;;;;;53.25;41.25;;;;;9.44;62.85;99206.97;4753801;29;45547;-81
2022/03/31 03:05:58;;;;;;;;;46.75;38.75;;;;;9.44;62.87;99193.06;4770308;29;45674;-81
2022/03/31 03:08:26;;;;;;;;;53.00;43.50;;;;;9.46;62.91;99196.34;4769950;29;45615;-80
2022/03/31 03:10:52;;;;;;;;;53.00;42.00;;;;;9.45;62.81;99203.38;4753421;29;47382;-81
2022/03/31 03:13:18;;;;;;;;;51.50;40.75;;;;;9.42;62.75;99195.00;4769125;29;45566;-81
2022/03/31 03:15:43;;;;;;;;;51.50;41.25;;;;;9.43;62.74;99191.41;4769767;29;45780;-81
2022/03/31 03:18:09;;;;;;;;;58.25;44.75;;;;;9.44;62.92;99193.91;4753378;29;48425;-83
2022/03/31 03:20:34;;;;;;;;;60.00;44.25;;;;;9.42;62.83;99181.91;4769904;29;45581;-80
2022/03/31 03:23:00;;;;;;;;;57.25;44.00;;;;;9.43;62.69;99189.63;4769878;29;45724;-82
2022/03/31 03:28:47;;;;;;;;;56.50;45.50;;;;;9.42;62.98;99174.91;4769629;29;45741;-81
2022/03/31 03:31:13;;;;;;;;;57.75;41.50;;;;;9.45;62.60;99171.19;4769425;29;45664;-81
2022/03/31 03:33:39;;;;;;;;;56.50;44.25;;;;;9.44;63.14;99177.41;4753467;29;45606;-82
2022/03/31 03:36:08;;;;;;;;;52.00;41.25;;;;;9.45;63.18;99168.56;4770186;29;45621;-82
2022/03/31 03:38:34;;;;;;;;;58.50;43.25;;;;;9.42;62.83;99163.63;4769590;29;45713;-82
2022/03/31 03:40:59;;;;;;;;;54.25;43.00;;;;;9.43;62.84;99152.22;4769597;29;46280;-81
2022/03/31 03:43:25;;;;;;;;;54.50;41.00;;;;;9.44;63.05;99156.47;4752886;29;45579;-82
2022/03/31 03:45:50;;;;;;;;;53.25;43.75;;;;;9.43;62.85;99170.50;4769762;29;45734;-82
2022/03/31 03:48:16;;;;;;;;;57.25;42.75;;;;;9.42;62.81;99164.44;4769482;29;45565;-82
2022/03/31 03:50:42;;;;;;;;;51.00;43.25;;;;;9.42;62.63;99172.28;4769270;29;46139;-81
2022/03/31 03:53:08;;;;;;;;;56.50;41.25;;;;;9.40;63.01;99181.22;4752974;29;45792;-83
2022/03/31 03:58:55;;;;;;;;;47.50;37.00;;;;;9.35;62.84;99173.78;4769055;29;45534;-81
2022/03/31 04:01:20;;;;;;;;;64.00;47.00;;;;;9.33;62.93;99178.34;4769312;29;46275;-83
2022/03/31 04:03:46;;;;;;;;;48.75;42.75;;;;;9.32;62.96;99187.16;4769249;29;46253;-82
2022/03/31 04:06:11;;;;;;;;;48.50;40.25;;;;;9.30;63.00;99180.38;4769389;29;45601;-83
2022/03/31 04:08:38;;;;;;;;;56.75;45.00;;;;;9.27;62.93;99190.16;4769155;29;46360;-82
2022/03/31 04:14:25;;;;;;;;;46.50;39.00;;;;;9.25;62.50;99179.00;4767156;29;45758;-82
2022/03/31 04:16:51;;;;;;;;;59.00;43.00;;;;;9.27;62.70;99176.28;4769548;29;45608;-82
2022/03/31 04:19:17;;;;;;;;;59.00;43.75;;;;;9.23;62.80;99177.53;4769025;29;46288;-82
2022/03/31 04:21:42;;;;;;;;;49.50;39.75;;;;;9.22;62.72;99176.69;4752577;29;47033;-83
2022/03/31 04:24:08;;;;;;;;;57.75;42.75;;;;;9.20;62.60;99176.00;4768891;29;45832;-82
2022/03/31 04:26:34;;;;;;;;;49.75;40.00;;;;;9.20;62.41;99180.38;4753481;29;45686;-82
2022/03/31 04:29:01;;;;;;;;;44.50;38.75;;;;;9.16;62.48;99185.06;4758596;29;47544;-81
2022/03/31 04:31:27;;;;;;;;;50.50;40.25;;;;;9.14;62.13;99186.97;4777352;29;46006;-81
2022/03/31 04:33:52;;;;;;;;;61.75;42.50;;;;;9.12;62.49;99186.28;4774676;29;45571;-82
2022/03/31 04:36:18;;;;;;;;;52.75;41.75;;;;;9.08;62.12;99184.06;4754792;29;45826;-82
2022/03/31 04:38:43;;;;;;;;;54.75;42.00;;;;;9.05;62.25;99192.19;4768711;29;46623;-81
2022/03/31 04:44:30;;;;;;;;;47.00;40.25;;;;;8.96;62.52;99195.63;4768639;29;45605;-82
2022/03/31 04:46:56;;;;;;;;;57.25;41.75;;;;;8.92;62.35;99188.97;4768976;29;45641;-82
2022/03/31 04:49:21;;;;;;;;;53.50;40.50;;;;;8.88;62.42;99193.66;4768510;29;46711;-82
2022/03/31 04:51:47;;;;;;;;;49.00;41.50;;;;;8.83;62.49;99193.22;4768568;29;45653;-82
2022/03/31 04:54:12;;;;;;;;;45.50;34.75;;;;;8.79;62.90;99190.06;4752319;29;45686;-81
2022/03/31 04:59:59;;;;;;;;;60.50;45.75;;;;;8.76;62.49;99190.31;4768210;29;46057;-82
2022/03/31 05:02:25;;;;;;;;;58.00;41.50;;;;;8.75;62.41;99185.22;4768587;29;45667;-82
2022/03/31 05:04:50;;;;;;;;;56.25;41.50;;;;;8.72;62.30;99172.44;4768422;29;45849;-82
2022/03/31 05:07:15;;;;;;;;;49.75;42.25;;;;;8.71;62.58;99176.84;4768643;29;45577;-82
2022/03/31 05:09:41;;;;;;;;;50.25;42.50;;;;;8.71;62.41;99178.63;4768182;29;46560;-83
2022/03/31 05:12:08;;;;;;;;;60.00;44.00;;;;;8.74;62.69;99179.19;4768371;29;45657;-83
2022/03/31 05:14:33;;;;;;;;;47.50;37.00;;;;;8.72;62.79;99190.72;4767840;29;45912;-84
2022/03/31 05:16:59;;;;;;;;;46.00;37.75;;;;;8.74;62.58;99194.03;4768669;29;45480;-83
2022/03/31 05:19:25;;;;;;;;;54.75;43.00;;;;;8.73;62.32;99187.97;4768270;29;46558;-83
2022/03/31 05:21:50;;;;;;;;;54.50;41.00;;;;;8.69;62.67;99189.19;4768286;29;45560;-83
2022/03/31 05:24:16;;;;;;;;;50.75;40.00;;;;;8.67;62.44;99196.34;4751675;29;46405;-83
2022/03/31 05:30:03;;;;;;;;;58.50;41.75;;;;;8.60;62.69;99197.81;4767972;29;46238;-81
2022/03/31 05:32:28;;;;;;;;;54.75;41.50;;;;;8.64;62.59;99208.81;4768217;29;45491;-81
2022/03/31 05:34:54;;;;;;;;;52.50;41.00;;;;;8.63;62.54;99192.34;4768833;29;45642;-81
2022/03/31 05:37:21;;;;;;;;;49.50;42.25;;;;;8.59;62.70;99203.97;4769329;29;45499;-83
2022/03/31 05:39:46;;;;;;;;;47.75;40.50;;;;;8.60;62.52;99207.41;4771355;29;45723;-81
2022/03/31 05:45:33;;;;;;;;;61.25;45.75;;;;;8.59;62.79;99226.66;4771988;29;45638;-81
2022/03/31 05:47:59;;;;;;;;;63.25;46.25;;;;;8.56;62.94;99229.53;4773228;29;45795;-81
2022/03/31 05:50:24;;;;;;;;;59.25;45.00;;;;;8.52;63.26;99215.94;4771007;29;46661;-81
2022/03/31 05:52:50;;;;;;;;;61.25;44.75;;;;;8.54;63.12;99216.59;4754557;29;48206;-81
2022/03/31 05:55:19;;;;;;;;;53.25;44.00;;;;;8.54;63.74;99213.16;4754788;29;45741;-83
2022/03/31 05:57:45;;;;;;;;;53.75;45.00;;;;;8.52;63.52;99221.16;4771060;29;45598;-83
2022/03/31 06:00:17;;;;;;;;;65.00;49.50;;;;;8.53;63.72;99228.00;4771010;29;47006;-84
2022/03/31 06:02:43;;;;;;;;;59.50;45.50;;;;;8.51;63.83;99213.44;4770787;29;46098;-83
2022/03/31 06:05:10;;;;;;;;;69.00;51.00;;;;;8.54;64.07;99224.44;4771035;29;45621;-83
2022/03/31 06:07:36;;;;;;;;;67.50;51.75;;;;;8.56;63.86;99227.75;4771129;29;45534;-83
2022/03/31 06:10:01;;;;;;;;;66.50;50.00;;;;;8.54;63.96;99229.66;4770646;29;46532;-82
2022/03/31 06:15:48;;;;;;;;;70.25;52.75;;;;;8.53;64.00;99230.59;4768610;29;45853;-82
2022/03/31 06:18:14;;;;;;;;;71.50;53.75;;;;;8.54;64.05;99236.66;4770876;29;45785;-81
2022/03/31 06:20:40;;;;;;;;;67.25;51.50;;;;;8.57;64.30;99233.81;4770424;29;46163;-82
2022/03/31 06:23:05;;;;;;;;;68.25;48.75;;;;;8.59;64.34;99243.13;4770530;29;46310;-82
2022/03/31 06:25:31;;;;;;;;;72.50;54.00;;;;;8.57;64.22;99236.41;4770728;29;46211;-81
2022/03/31 06:31:17;;;;;;;;;75.25;52.00;;;;;8.58;64.29;99245.91;4770412;29;45676;-82
2022/03/31 06:33:43;;;;;;;;;65.25;51.50;;;;;8.59;64.53;99242.31;4770320;29;46191;-81
2022/03/31 06:36:08;;;;;;;;;68.25;53.75;;;;;8.59;64.74;99248.34;4770560;29;45772;-81
2022/03/31 06:38:34;;;;;;;;;78.25;52.50;;;;;8.59;64.70;99247.53;4770489;29;45637;-81
2022/03/31 06:41:10;;;;;;;;;73.75;53.25;;;;;8.59;64.52;99261.41;4770336;29;45733;-81
2022/03/31 06:43:40;;;;;;;;;72.75;52.75;;;;;8.62;64.42;99262.94;4770377;29;46048;-83
2022/03/31 06:46:07;;;;;;;;;70.75;52.75;;;;;8.59;64.86;99248.34;4770437;29;45824;-81
2022/03/31 06:48:33;;;;;;;;;80.00;56.00;;;;;8.60;64.35;99246.56;4753693;29;45590;-81
2022/03/31 06:50:59;;;;;;;;;77.75;53.25;;;;;8.63;64.29;99241.94;4770197;29;45646;-81
2022/03/31 06:53:25;;;;;;;;;78.25;54.25;;;;;8.65;64.32;99241.78;4770174;29;46085;-82
2022/03/31 06:55:51;;;;;;;;;72.75;54.75;;;;;8.64;64.03;99232.31;4770151;29;45892;-82
2022/03/31 07:01:38;;;;;;;;;65.25;48.75;;;;;8.74;63.97;99246.25;4769744;29;45694;-82
2022/03/31 07:04:06;;;;;;;;;65.00;45.75;;;;;8.75;63.85;99247.88;4769934;29;45724;-83
2022/03/31 07:06:32;;;;;;;;;61.50;45.50;;;;;8.78;63.51;99240.63;4753638;29;45930;-82
2022/03/31 07:08:57;;;;;;;;;67.00;49.00;;;;;8.79;63.48;99237.06;4770150;29;45398;-82
2022/03/31 07:11:23;;;;;;;;;61.75;48.25;;;;;8.82;63.42;99226.34;4769953;29;45642;-83
2022/03/31 07:13:49;;;;;;;;;62.50;46.75;;;;;8.88;63.26;99227.59;4769739;29;46091;-82
2022/03/31 07:16:16;;;;;;;;;67.50;50.25;;;;;8.97;63.12;99226.78;4769880;29;46050;-82
2022/03/31 07:18:42;;;;;;;;;64.75;51.00;;;;;9.03;63.11;99228.06;4770119;29;45869;-78
2022/03/31 07:21:08;;;;;;;;;57.25;44.00;;;;;9.11;63.18;99231.66;4769905;29;45543;-78
2022/03/31 07:23:33;;;;;;;;;60.25;46.00;;;;;9.17;63.05;99230.31;4769746;29;45579;-78
2022/03/31 07:25:59;;;;;;;;;55.00;43.25;;;;;9.24;62.66;99224.41;4769868;29;45676;-79
2022/03/31 07:31:46;;;;;;;;;61.50;45.50;;;;;9.30;62.34;99241.31;4769441;29;45599;-78
2022/03/31 07:34:11;;;;;;;;;54.50;44.00;;;;;9.33;62.04;99245.47;4769480;29;46156;-77
2022/03/31 07:36:37;;;;;;;;;61.50;40.75;;;;;9.34;62.24;99236.69;4769558;29;45600;-78
2022/03/31 07:39:03;;;;;;;;;57.00;41.50;;;;;9.36;62.15;99248.63;4769498;29;45629;-78
2022/03/31 07:41:28;;;;;;;;;51.00;42.75;;;;;9.37;62.34;99252.91;4769520;29;46471;-78
2022/03/31 07:43:54;;;;;;;;;54.75;41.00;;;;;9.36;62.25;99248.63;4752857;29;46311;-77
2022/03/31 07:46:19;;;;;;;;;58.50;44.00;;;;;9.32;62.50;99246.44;4769569;29;45713;-78
2022/03/31 07:48:45;;;;;;;;;46.25;41.25;;;;;9.36;62.73;99248.63;4752929;29;45895;-77
2022/03/31 07:51:10;;;;;;;;;66.50;48.75;;;;;9.36;62.83;99253.84;4768952;29;46450;-77
2022/03/31 07:53:35;;;;;;;;;62.25;45.00;;;;;9.36;62.40;99247.81;4768839;29;46186;-78
2022/03/31 07:56:03;;;;;;;;;59.00;45.00;;;;;9.36;62.76;99243.41;4769121;29;45570;-78
2022/03/31 08:01:52;;;;;;;;;63.75;48.25;;;;;9.36;62.77;99258.25;4768384;29;45508;-78
2022/03/31 08:04:18;;;;;;;;;57.25;44.75;;;;;9.35;62.63;99257.44;4768944;29;45632;-77
2022/03/31 08:06:43;;;;;;;;;61.50;45.75;;;;;9.34;63.32;99260.19;4769142;29;45454;-81
2022/03/31 08:09:13;;;;;;;;;61.00;47.00;;;;;9.32;63.68;99259.50;4769297;29;45606;-80
2022/03/31 08:11:39;;;;;;;;;68.75;48.50;;;;;9.28;64.70;99269.41;4768906;29;45579;-80
2022/03/31 08:14:05;;;;;;;;;69.50;52.25;;;;;9.22;64.66;99277.78;4768663;29;46372;-81
2022/03/31 08:16:32;;;;;;;;;63.50;49.50;;;;;9.14;64.99;99265.34;4768544;29;45595;-80
2022/03/31 08:18:58;;;;;;;;;61.50;48.00;;;;;9.05;65.89;99274.00;4768943;29;45617;-79
2022/03/31 08:21:23;;;;;;;;;66.50;47.00;;;;;8.95;67.17;99286.19;4752343;29;47199;-80
2022/03/31 08:23:49;;;;;;;;;67.00;50.00;;;;;8.78;68.40;99285.03;4768768;29;46290;-79
2022/03/31 08:26:14;;;;;;;;;40.75;34.00;;;;;8.64;68.95;99321.06;4768791;29;45632;-79
2022/03/31 08:32:02;;;;;;;;;30.00;18.50;;;;;8.31;69.65;99315.06;4768470;29;45587;-78
2022/03/31 08:34:27;;;;;;;;;18.25;17.75;;;;;8.18;69.74;99296.16;4768623;29;46466;-78
2022/03/31 08:36:53;;;;;;;;;17.25;13.25;;;;;8.11;69.31;99322.84;4768735;29;45579;-78
2022/03/31 08:39:18;;;;;;;;;21.75;16.00;;;;;7.98;70.55;99315.22;4768754;29;45570;-78
2022/03/31 08:41:44;;;;;;;;;18.00;15.75;;;;;7.86;69.94;99329.25;4768789;29;45812;-78
2022/03/31 08:47:32;;;;;;;;;16.00;14.25;;;;;7.60;70.01;99344.34;4768515;29;46144;-81
2022/03/31 08:49:57;;;;;;;;;13.50;11.75;;;;;7.52;69.93;99344.94;4767158;29;45807;-80
2022/03/31 08:52:24;;;;;;;;;12.75;10.00;;;;;7.47;70.26;99346.25;4767487;29;45751;-81
2022/03/31 08:54:50;;;;;;;;;9.50;9.25;;;;;7.37;69.49;99361.78;4767622;29;46093;-81
2022/03/31 08:57:16;;;;;;;;;9.25;7.25;;;;;7.28;69.10;99367.72;4750658;29;45527;-77
2022/03/31 08:59:42;;;;;;;;;6.00;6.00;;;;;7.22;69.13;99362.16;4768316;29;45575;-78
2022/03/31 09:02:09;;;;;;;;;11.00;8.25;;;;;7.12;69.26;99380.28;4768056;29;46300;-78
2022/03/31 09:04:34;;;;;;;;;7.50;6.00;;;;;7.02;68.91;99374.06;4767811;29;46770;-77
2022/03/31 09:07:08;;;;;;;;;11.00;8.25;;;;;6.93;68.92;99375.63;4767957;29;45991;-77
2022/03/31 09:09:51;;;;;;;;;5.00;4.00;;;;;6.86;69.05;99394.41;4768100;29;45900;-78
2022/03/31 09:12:17;;;;;;;;;6.50;5.50;;;;;6.75;68.86;99410.84;4753566;29;46491;-77
2022/03/31 09:14:43;;;;;;;;;9.25;7.50;;;;;6.66;69.21;99417.56;4770658;29;46828;-77
2022/03/31 09:17:15;;;;;;;;;5.75;5.75;;;;;6.53;68.91;99408.19;4771280;29;45710;-78
2022/03/31 09:19:45;;;;;;;;;4.75;4.00;;;;;6.46;69.44;99406.97;4770883;29;45826;-80
2022/03/31 09:22:11;;;;;;;;;6.50;6.00;;;;;6.41;69.75;99427.28;4770475;29;46458;-79
2022/03/31 09:24:37;;;;;;;;;7.00;5.75;;;;;6.36;69.39;99443.22;4754427;29;47385;-78
2022/03/31 09:27:04;;;;;;;;;5.00;5.00;;;;;6.29;69.51;99423.81;4771276;29;46069;-78
2022/03/31 09:32:52;;;;;;;;;5.00;5.00;;;;;6.22;69.44;99448.56;4771311;29;45573;-81
2022/03/31 09:35:25;;;;;;;;;8.75;5.50;;;;;6.18;69.57;99444.53;4773172;29;46052;-82
2022/03/31 09:37:54;;;;;;;;;5.00;5.00;;;;;6.14;69.48;99451.75;4771525;29;45879;-81
2022/03/31 09:40:19;;;;;;;;;8.25;5.25;;;;;6.11;69.63;99457.16;4772098;29;45572;-82
2022/03/31 09:43:00;;;;;;;;;5.00;5.00;;;;;6.08;70.18;99440.94;4771792;29;46100;-88
2022/03/31 09:45:39;;;;;;;;;7.50;5.75;;;;;6.01;69.75;99452.72;4771760;29;46606;-85
2022/03/31 09:48:08;;;;;;;;;7.00;6.00;;;;;5.98;70.01;99443.38;4771896;29;45534;-86
2022/03/31 09:50:36;;;;;;;;;5.00;5.00;;;;;5.94;69.70;99448.91;4756847;29;45971;-81
2022/03/31 09:53:03;;;;;;;;;6.00;6.00;;;;;6.00;70.26;99448.44;4775841;29;45684;-80
2022/03/31 09:55:29;;;;;;;;;11.00;9.00;;;;;6.01;69.91;99450.94;4775006;29;46082;-76
2022/03/31 09:57:56;;;;;;;;;7.50;6.00;;;;;6.04;69.93;99449.91;4773721;29;45422;-85
2022/03/31 10:00:23;;;;;;;;;4.25;4.00;;;;;6.04;69.92;99450.75;4774911;29;45790;-80
2022/03/31 10:02:50;;;;;;;;;5.00;4.00;;;;;6.07;69.74;99449.69;4774115;29;45738;-81
2022/03/31 10:05:18;;;;;;;;;8.75;5.75;;;;;6.09;69.50;99453.00;4772586;29;45712;-82
2022/03/31 10:07:48;;;;;;;;;4.00;4.00;;;;;6.08;69.63;99453.94;4754705;29;46016;-81
2022/03/31 10:10:14;;;;;;;;;5.75;4.75;;;;;6.12;69.75;99456.22;4772233;29;45533;-82
2022/03/31 10:19:54;;;;;;;;;6.25;5.00;;;;;6.14;69.39;99480.34;4688905;30;45649;-88
2022/03/31 10:25:11;;;;;;;;;4.25;4.25;;;;;6.15;68.91;99476.81;4691382;30;45324;-93
2022/03/31 10:27:45;;;;;;;;;6.00;5.00;;;;;6.15;68.81;99466.41;4698347;30;45767;-94
2022/03/31 10:33:38;;;;;;;;;6.00;5.75;;;;;6.14;68.86;99464.75;4696520;30;45423;-87
2022/03/31 10:36:13;;;;;;;;;5.00;4.50;;;;;6.18;68.83;99441.94;4691031;30;47383;-86
2022/03/31 10:38:51;;;;;;;;;6.00;5.00;;;;;6.21;68.24;99454.72;4694111;30;45560;-84
2022/03/31 10:41:17;;;;;;;;;5.00;4.00;;;;;6.23;68.03;99443.28;4694409;30;45703;-83
2022/03/31 10:43:47;;;;;;;;;5.00;4.75;;;;;6.27;68.79;99459.47;4686164;30;45781;-81
2022/03/31 10:46:18;;;;;;;;;8.00;5.25;;;;;6.30;68.07;99446.28;4686109;30;46460;-79
2022/03/31 10:48:51;;;;;;;;;6.50;5.50;;;;;6.32;68.49;99441.78;4686348;30;45724;-78
2022/03/31 10:51:17;;;;;;;;;4.00;4.00;;;;;6.37;68.13;99428.47;4682522;30;45724;-80
2022/03/31 10:53:50;;;;;;;;;2.00;1.25;;;;;6.46;68.11;99459.00;4752918;29;45733;-80
2022/03/31 10:56:27;;;;;;;;;2.00;1.50;;;;;6.50;67.88;99437.00;4757713;29;45621;-83
2022/03/31 10:58:56;;;;;;;;;1.00;1.00;;;;;6.58;67.45;99447.69;4740977;29;46689;-79
2022/03/31 11:01:23;;;;;;;;;1.00;1.00;;;;;6.62;66.91;99468.19;4753577;29;45845;-80
2022/03/31 11:03:50;;;;;;;;;1.25;1.00;;;;;6.65;67.46;99446.28;4753040;29;45692;-79
2022/03/31 11:06:17;;;;;;;;;4.50;4.00;;;;;6.68;67.46;99433.06;4753380;29;45600;-80
2022/03/31 11:08:45;;;;;;;;;4.75;2.25;;;;;6.75;67.53;99457.69;4753306;29;46596;-78
2022/03/31 11:11:22;;;;;;;;;2.00;2.00;;;;;6.79;67.25;99440.91;4753321;29;45995;-79
2022/03/31 11:13:49;;;;;;;;;3.00;3.00;;;;;6.87;67.22;99445.53;4752553;29;45570;-79
2022/03/31 11:16:15;;;;;;;;;4.50;4.00;;;;;6.93;67.16;99463.31;4751981;29;47628;-80
2022/03/31 11:18:42;;;;;;;;;5.25;3.50;;;;;6.97;66.02;99444.72;4763351;29;45547;-79
2022/03/31 11:21:07;;;;;;;;;4.00;1.75;;;;;7.01;65.97;99454.00;4770280;29;45625;-79
2022/03/31 11:23:33;;;;;;;;;4.00;4.00;;;;;7.02;65.51;99465.22;4770317;29;45701;-79
2022/03/31 11:25:59;;;;;;;;;5.25;4.25;;;;;7.06;65.39;99456.25;4770543;29;46279;-78
2022/03/31 11:28:29;;;;;;;;;6.00;4.00;;;;;7.10;65.31;99461.09;4769968;29;45671;-78
2022/03/31 11:34:19;;;;;;;;;5.00;5.00;;;;;7.18;64.51;99450.09;4769347;29;45547;-78
2022/03/31 11:36:44;;;;;;;;;7.50;7.00;;;;;7.20;64.68;99434.34;4752997;29;47489;-79
2022/03/31 11:39:10;;;;;;;;;6.00;5.00;;;;;7.21;64.70;99428.22;4769796;29;45925;-78
2022/03/31 11:41:41;;;;;;;;;4.75;4.75;;;;;7.29;64.41;99444.09;4769841;29;45515;-79
2022/03/31 11:44:08;;;;;;;;;5.00;4.00;;;;;7.34;64.66;99439.38;4770050;29;45718;-79
2022/03/31 11:46:47;;;;;;;;;6.25;3.50;;;;;7.36;64.07;99440.88;4769750;29;45601;-79
2022/03/31 11:49:24;;;;;;;;;7.00;5.00;;;;;7.41;63.94;99450.94;4769550;29;45618;-79
2022/03/31 11:51:51;;;;;;;;;6.75;4.00;;;;;7.43;63.53;99444.69;4769980;29;45796;-81
2022/03/31 11:54:16;;;;;;;;;3.25;3.25;;;;;7.42;63.12;99436.97;4769838;29;45531;-80
2022/03/31 11:56:42;;;;;;;;;5.50;5.00;;;;;7.46;63.50;99444.44;4769663;29;45792;-78
2022/03/31 11:59:07;;;;;;;;;4.25;3.25;;;;;7.46;63.27;99441.00;4769560;29;45597;-79
2022/03/31 12:01:43;;;;;;;;;4.25;3.00;;;;;7.48;63.30;99447.78;4769494;29;45684;-80
2022/03/31 12:04:24;;;;;;;;;6.00;4.25;;;;;7.51;63.08;99472.75;4769576;29;45554;-79
2022/03/31 12:06:52;;;;;;;;;2.00;2.00;;;;;7.51;62.36;99444.91;4769368;29;45690;-78
2022/03/31 12:09:18;;;;;;;;;4.50;4.00;;;;;7.56;61.77;99509.72;4752844;29;47481;-80
2022/03/31 12:11:46;;;;;;;;;4.50;3.75;;;;;7.52;61.34;99449.19;4769126;29;45676;-79
2022/03/31 12:14:11;;;;;;;;;2.00;2.00;;;;;7.49;60.96;99451.22;4769035;29;45765;-79
2022/03/31 12:16:51;;;;;;;;;2.00;2.00;;;;;7.49;61.09;99465.06;4769220;29;45694;-78
2022/03/31 12:19:18;;;;;;;;;4.00;3.50;;;;;7.48;61.25;99457.38;4769213;29;45648;-79
2022/03/31 12:21:53;;;;;;;;;5.25;4.00;;;;;7.47;61.31;99468.72;4752828;29;45627;-79
2022/03/31 12:24:20;;;;;;;;;4.25;2.50;;;;;7.52;62.14;99466.59;4769718;29;45546;-81
2022/03/31 12:26:53;;;;;;;;;6.50;3.50;;;;;7.56;61.87;99471.44;4769382;29;45518;-80
2022/03/31 12:29:20;;;;;;;;;2.50;2.50;;;;;7.64;61.51;99467.44;4769642;29;46206;-81
2022/03/31 12:31:48;;;;;;;;;5.00;3.00;;;;;7.63;61.20;99463.16;4769329;29;45844;-79
2022/03/31 12:34:14;;;;;;;;;3.25;3.25;;;;;7.64;61.30;99467.44;4769383;29;45543;-81
2022/03/31 12:36:42;;;;;;;;;5.50;5.00;;;;;7.65;61.44;99480.34;4769273;29;46510;-81
2022/03/31 12:39:08;;;;;;;;;4.75;4.75;;;;;7.66;61.33;99452.50;4769246;29;45445;-80
2022/03/31 12:41:39;;;;;;;;;4.50;3.50;;;;;7.71;61.40;99486.88;4769342;29;45595;-79
2022/03/31 12:44:17;;;;;;;;;6.00;5.00;;;;;7.77;61.16;99475.97;4770046;29;45696;-80
2022/03/31 12:50:15;;;;;;;;;2.00;2.00;;;;;7.88;59.89;99473.38;4768867;29;46242;-80
2022/03/31 12:52:53;;;;;;;;;4.50;3.50;;;;;7.89;59.40;99473.22;4768834;29;45887;-80
2022/03/31 12:55:26;;;;;;;;;2.75;2.25;;;;;7.96;58.71;99479.63;4769538;29;45639;-79
2022/03/31 12:57:56;;;;;;;;;4.25;2.00;;;;;8.03;58.93;99469.53;4768959;29;45560;-79
2022/03/31 13:00:22;;;;;;;;;6.25;5.00;;;;;8.11;59.12;99461.09;4768881;29;46267;-78
2022/03/31 13:02:48;;;;;;;;;6.00;6.00;;;;;8.20;58.18;99469.03;4768865;29;45549;-79
2022/03/31 13:05:21;;;;;;;;;10.00;8.00;;;;;8.28;58.49;99450.97;4769121;29;45723;-79